Airport details for: LRSB (Romania)

Metar

LRSB 111300Z VRB02KT CAVOK 08/02 Q1009 R27/29//95

General details

ICAO: LRSB
IATA: SBZ
Name (city): Sibiu
Major:
Country: Romania
vACC: vACC Romania
Description:

Sibiu International 

Scenery links:
FS9 scenery: Download
FSX/P3D scenery: Download
XP scenery:
Elevation: 1520 ft.
Transition altitude: 4000 ft.
MSA: 8600 ft.
Latitude: 45.785833
Longitude: 24.085556
LRSB Charts
LRSB Notams
LRSB Online stations

Runways

Number Course Length Elevation Lat Lon ILS ILS freq ILS FAC GP
09 87° 8629ft / 2630 m 1520ft 45.786164 24.068672 - - 3.0°
27 267° 8629ft / 2630 m 1444ft 45.785611 24.102492 110.7 267° 3.0°